Weather at Elmira Corning Regional Airport

Public forecast

Using degrees Fahrenheit for public forecast. Weather courtesy of forecast.io.

Current aviation weather report (METAR) for Elmira Corning Regional Airport

Report is more than 6 hours old.

2022/11/14 14:53 (retrieved 2 years ago)

KELM 141453Z 29012KT 10SM OVC046 02/M06 A3035 RMK AO2 SLP286 T00171056 51012

Aviation forecast (TAF) for Elmira Corning Regional Airport

Forecast is more than 12 hours old.

2023/02/22 18:22 (retrieved 1 year ago)

TAF KELM 221720Z 2218/2318 12007G12KT 1SM -SN BR OVC025 FM222000 10008KT 1/2SM SN FG OVC015 FM222300 09008KT 3SM -FZRA BR OVC008 FM230100 16012KT 4SM -SHRA BR OVC008 WS020/21035KT FM231100 32005KT P6SM BKN008